createdAt,value
2023-05-06T00:02:37.898Z,3.10
2023-05-06T00:05:41.885Z,4.20
2023-05-06T00:08:46.123Z,3.40
2023-05-06T00:11:49.080Z,4.60
2023-05-06T00:14:51.865Z,3.80
2023-05-06T00:17:55.753Z,3.40
2023-05-06T00:20:59.082Z,3.90
2023-05-06T00:24:01.915Z,4.10
2023-05-06T00:27:04.717Z,4.50
2023-05-06T00:30:08.452Z,3.80
2023-05-06T00:33:11.505Z,3.70
2023-05-06T00:36:14.750Z,4.60
2023-05-06T00:39:17.630Z,4.20
2023-05-06T00:42:23.329Z,4.70
2023-05-06T00:45:26.447Z,5.10
2023-05-06T00:48:29.380Z,4.90
2023-05-06T00:51:32.440Z,6.40
2023-05-06T00:54:35.912Z,5.00
2023-05-06T00:57:40.411Z,5.20
2023-05-06T01:00:43.487Z,4.20
2023-05-06T01:03:47.251Z,4.80
2023-05-06T01:06:58.617Z,5.30
2023-05-06T01:10:20.610Z,4.90
2023-05-06T01:13:48.844Z,5.00
2023-05-06T01:16:56.128Z,4.90
2023-05-06T01:20:01.695Z,4.80
2023-05-06T01:23:12.071Z,4.30
2023-05-06T01:26:14.844Z,5.60
2023-05-06T01:29:17.674Z,4.50
2023-05-06T01:32:34.201Z,3.40
2023-05-06T01:35:56.067Z,4.50
2023-05-06T01:39:25.981Z,3.40
2023-05-06T01:42:31.416Z,5.50
2023-05-06T01:45:36.501Z,5.20
2023-05-06T01:48:39.811Z,6.20
2023-05-06T01:51:52.601Z,6.60
2023-05-06T01:54:55.508Z,7.10
2023-05-06T01:57:58.364Z,8.00
2023-05-06T02:01:01.191Z,7.70
2023-05-06T02:04:04.428Z,7.20
2023-05-06T02:07:07.466Z,7.50
2023-05-06T02:10:11.239Z,9.10
2023-05-06T02:13:14.238Z,6.90
2023-05-06T02:16:17.125Z,6.80
2023-05-06T02:19:20.037Z,7.50
2023-05-06T02:22:23.075Z,7.40
2023-05-06T02:25:25.913Z,7.90
2023-05-06T02:28:28.746Z,8.30
2023-05-06T02:31:31.897Z,9.20
2023-05-06T02:34:34.975Z,10.30
2023-05-06T02:37:37.807Z,8.90
2023-05-06T02:40:40.697Z,9.60
2023-05-06T02:43:43.526Z,8.70
2023-05-06T02:46:47.359Z,8.80
2023-05-06T02:49:50.171Z,9.40
2023-05-06T02:52:52.981Z,9.10
2023-05-06T02:55:55.805Z,8.80
2023-05-06T02:58:58.632Z,9.40
2023-05-06T03:02:01.469Z,9.70
2023-05-06T03:05:04.794Z,8.90
2023-05-06T03:08:07.593Z,8.90
2023-05-06T03:11:10.567Z,13.70
2023-05-06T03:14:13.411Z,11.30
2023-05-06T03:17:16.268Z,13.10
2023-05-06T03:20:19.651Z,10.00
2023-05-06T03:23:22.551Z,9.20
2023-05-06T03:26:25.663Z,11.10
2023-05-06T03:29:28.513Z,10.20
2023-05-06T03:32:31.484Z,7.10
2023-05-06T03:35:34.406Z,6.70
2023-05-06T03:38:37.196Z,7.90
2023-05-06T03:41:40.245Z,7.60
2023-05-06T03:44:43.064Z,9.10
2023-05-06T03:47:46.111Z,8.10
2023-05-06T03:50:48.983Z,8.70
2023-05-06T03:53:54.098Z,8.50
2023-05-06T03:56:57.583Z,6.90
2023-05-06T04:00:00.388Z,8.40
2023-05-06T04:03:03.342Z,8.20
2023-05-06T04:06:07.246Z,7.00
2023-05-06T04:09:10.121Z,7.10
2023-05-06T04:12:12.938Z,7.70
2023-05-06T04:15:15.901Z,5.80
2023-05-06T04:18:20.055Z,8.90
2023-05-06T04:21:22.888Z,9.50
2023-05-06T04:24:28.394Z,9.10
2023-05-06T04:27:32.282Z,10.10
2023-05-06T04:30:36.056Z,10.10
2023-05-06T04:33:41.451Z,9.20
2023-05-06T04:36:44.382Z,9.80
2023-05-06T04:39:47.545Z,9.60
2023-05-06T04:42:50.746Z,10.50
2023-05-06T04:45:54.461Z,10.10
2023-05-06T04:48:58.378Z,9.60
2023-05-06T04:52:01.218Z,9.30
2023-05-06T04:55:04.577Z,10.20
2023-05-06T04:58:07.715Z,10.60
2023-05-06T05:01:11.543Z,12.10
2023-05-06T05:04:14.322Z,10.90
2023-05-06T05:07:17.286Z,10.10
2023-05-06T05:10:20.139Z,11.00
2023-05-06T05:13:22.973Z,7.30
2023-05-06T05:16:25.946Z,10.90
2023-05-06T05:19:28.909Z,10.10
2023-05-06T05:22:32.173Z,10.80
2023-05-06T05:25:35.151Z,9.10
2023-05-06T05:28:38.082Z,9.20
2023-05-06T05:31:41.000Z,10.20
2023-05-06T05:34:43.840Z,9.20
2023-05-06T05:37:47.047Z,10.00
2023-05-06T05:40:49.987Z,9.50
2023-05-06T05:43:52.776Z,9.60
2023-05-06T05:46:55.639Z,10.00
2023-05-06T05:49:58.649Z,10.30
2023-05-06T05:53:01.496Z,11.30
2023-05-06T05:56:04.561Z,9.80
2023-05-06T05:59:07.317Z,9.30
2023-05-06T06:02:10.259Z,10.30
2023-05-06T06:05:13.049Z,10.00
2023-05-06T06:08:18.370Z,9.40
2023-05-06T06:11:21.568Z,8.20
2023-05-06T06:14:24.394Z,8.00
2023-05-06T06:17:27.302Z,9.20
2023-05-06T06:20:30.170Z,9.10
2023-05-06T06:23:32.959Z,10.40
2023-05-06T06:26:35.821Z,10.10
2023-05-06T06:29:38.601Z,10.50
2023-05-06T06:32:49.435Z,10.20
2023-05-06T06:35:52.277Z,10.10
2023-05-06T06:38:55.140Z,9.20
2023-05-06T06:42:04.265Z,10.40
2023-05-06T06:45:09.685Z,9.20
2023-05-06T06:48:12.825Z,9.20
2023-05-06T06:51:15.691Z,9.40
2023-05-06T06:54:18.482Z,10.40
2023-05-06T06:57:21.441Z,8.10
2023-05-06T07:00:24.357Z,8.50
2023-05-06T07:03:27.183Z,8.30
2023-05-06T07:06:30.044Z,8.50
2023-05-06T07:09:35.707Z,9.10
2023-05-06T07:12:38.856Z,8.80
2023-05-06T07:15:41.977Z,9.00
2023-05-06T07:18:45.352Z,8.50
2023-05-06T07:21:48.550Z,8.60
2023-05-06T07:24:51.507Z,9.30
2023-05-06T07:27:54.430Z,7.80
2023-05-06T07:30:57.204Z,6.30
2023-05-06T07:34:00.199Z,7.40
2023-05-06T07:37:03.971Z,4.20
2023-05-06T07:40:07.773Z,4.50
2023-05-06T07:43:10.782Z,4.50
2023-05-06T07:46:13.696Z,3.70
2023-05-06T07:49:16.695Z,4.60
2023-05-06T07:52:19.630Z,5.00
2023-05-06T07:55:22.494Z,3.20
2023-05-06T07:58:25.382Z,3.20
2023-05-06T08:01:29.203Z,2.90
2023-05-06T08:04:32.018Z,2.40
2023-05-06T08:07:34.825Z,2.70
2023-05-06T08:10:37.772Z,2.60
2023-05-06T08:13:40.802Z,2.70
2023-05-06T08:16:43.764Z,2.30
2023-05-06T08:19:46.738Z,2.90
2023-05-06T08:22:49.519Z,3.30
2023-05-06T08:25:52.349Z,3.50
2023-05-06T08:28:56.424Z,2.60
2023-05-06T08:31:59.265Z,3.50
2023-05-06T08:35:02.321Z,2.40
2023-05-06T08:38:05.205Z,2.80
2023-05-06T08:41:09.943Z,3.40
2023-05-06T08:44:17.833Z,3.50
2023-05-06T08:47:21.108Z,3.20
2023-05-06T08:50:27.575Z,2.90
2023-05-06T08:53:31.344Z,3.30
2023-05-06T08:56:35.712Z,2.20
2023-05-06T08:59:38.556Z,3.00
2023-05-06T09:02:43.386Z,2.70
2023-05-06T09:05:46.687Z,3.60
2023-05-06T09:08:49.828Z,3.20
2023-05-06T09:11:57.766Z,2.50
2023-05-06T09:15:00.719Z,3.80
2023-05-06T09:18:03.734Z,4.00
2023-05-06T09:21:06.677Z,3.80
2023-05-06T09:24:10.913Z,4.40
2023-05-06T09:27:15.185Z,2.90
2023-05-06T09:30:18.733Z,4.00
2023-05-06T09:33:21.743Z,4.40
2023-05-06T09:36:28.356Z,4.90
2023-05-06T09:39:31.211Z,3.40
2023-05-06T09:42:34.919Z,4.50
2023-05-06T09:45:37.834Z,6.60
2023-05-06T09:48:41.276Z,6.10
2023-05-06T09:51:48.172Z,5.60
2023-05-06T09:54:53.349Z,6.00
2023-05-06T09:57:58.193Z,5.90
2023-05-06T10:01:04.050Z,5.10
2023-05-06T10:04:10.143Z,4.50
2023-05-06T10:07:14.847Z,4.50
2023-05-06T10:10:18.230Z,4.30
2023-05-06T10:13:22.656Z,4.90
2023-05-06T10:16:26.268Z,4.30
2023-05-06T10:19:30.228Z,3.90
2023-05-06T10:22:52.537Z,4.20
2023-05-06T10:26:04.206Z,4.00
2023-05-06T10:29:11.645Z,4.20
2023-05-06T10:32:14.539Z,5.20
2023-05-06T10:35:44.717Z,4.60
2023-05-06T10:38:55.005Z,4.80
2023-05-06T10:41:57.877Z,4.40
2023-05-06T10:45:01.903Z,5.30
2023-05-06T10:48:05.858Z,4.90
2023-05-06T10:51:21.529Z,4.90
2023-05-06T10:54:24.786Z,3.80
2023-05-06T10:57:41.233Z,3.80
2023-05-06T11:00:54.541Z,4.00
2023-05-06T11:03:57.672Z,4.90
2023-05-06T11:07:24.093Z,4.40
2023-05-06T11:10:33.833Z,3.70
2023-05-06T11:13:36.806Z,3.00
2023-05-06T11:16:50.295Z,3.60
2023-05-06T11:20:23.009Z,3.20
2023-05-06T11:23:52.313Z,4.20
2023-05-06T11:26:56.962Z,3.60
2023-05-06T11:29:59.816Z,4.60
2023-05-06T11:33:05.688Z,2.60
2023-05-06T11:36:15.642Z,3.10
2023-05-06T11:39:18.668Z,4.20
2023-05-06T11:42:26.829Z,4.70
2023-05-06T11:45:43.801Z,4.50
2023-05-06T11:48:46.945Z,5.80
2023-05-06T11:51:49.945Z,6.60
2023-05-06T11:54:56.210Z,8.60
2023-05-06T11:57:59.091Z,8.60
2023-05-06T12:01:03.359Z,6.20
2023-05-06T12:04:06.503Z,7.40
2023-05-06T12:07:11.450Z,12.30
2023-05-06T12:10:15.857Z,14.90
2023-05-06T12:13:20.233Z,18.20
2023-05-06T12:16:24.338Z,14.30
2023-05-06T12:19:29.265Z,17.00
2023-05-06T12:22:32.023Z,13.00
2023-05-06T12:25:35.061Z,13.60
2023-05-06T12:28:37.865Z,15.60
2023-05-06T12:31:40.773Z,12.30
2023-05-06T12:34:43.723Z,12.00
2023-05-06T12:37:47.010Z,6.70
2023-05-06T12:40:54.996Z,7.20
2023-05-06T12:43:57.873Z,6.40
2023-05-06T12:47:08.913Z,7.10
2023-05-06T12:50:12.106Z,7.80
2023-05-06T12:53:31.594Z,7.30
2023-05-06T12:56:34.587Z,7.60
2023-05-06T12:59:37.617Z,8.30
2023-05-06T13:02:41.420Z,8.50
2023-05-06T13:05:44.539Z,7.60
2023-05-06T13:08:47.372Z,7.30
2023-05-06T13:11:50.541Z,8.90
2023-05-06T13:14:53.494Z,8.40
2023-05-06T13:17:57.386Z,8.30
2023-05-06T13:21:00.822Z,10.10
2023-05-06T13:24:04.624Z,8.50
2023-05-06T13:27:07.606Z,9.60
2023-05-06T13:30:11.096Z,10.90
2023-05-06T13:33:14.291Z,9.00
2023-05-06T13:36:17.179Z,10.30
2023-05-06T13:39:20.609Z,6.50
2023-05-06T13:42:23.614Z,5.90
2023-05-06T13:45:26.436Z,6.30
2023-05-06T13:48:29.264Z,7.30
2023-05-06T13:51:34.639Z,5.50
2023-05-06T14:00:43.361Z,6.40
2023-05-06T14:03:46.455Z,5.80
2023-05-06T14:06:49.274Z,7.80
2023-05-06T14:09:52.058Z,7.80
2023-05-06T14:12:54.984Z,5.90
2023-05-06T14:15:58.286Z,7.80
2023-05-06T14:19:01.209Z,8.50
2023-05-06T14:22:04.031Z,6.40
2023-05-06T14:25:07.662Z,8.60
2023-05-06T14:28:11.213Z,9.40
2023-05-06T14:31:14.039Z,7.40
2023-05-06T14:34:16.930Z,8.50
2023-05-06T14:37:20.971Z,6.60
2023-05-06T14:40:23.976Z,7.40
2023-05-06T14:43:26.795Z,8.20
2023-05-06T14:46:29.832Z,11.00
2023-05-06T14:49:32.751Z,10.30
2023-05-06T14:52:37.074Z,10.80
2023-05-06T14:55:41.393Z,12.70
2023-05-06T14:58:44.338Z,14.20
2023-05-06T15:01:47.228Z,15.10
2023-05-06T15:04:50.201Z,17.30
2023-05-06T15:07:53.117Z,16.20
2023-05-06T15:10:56.101Z,19.80
2023-05-06T15:13:58.971Z,15.00
2023-05-06T15:17:01.998Z,16.40
2023-05-06T15:20:06.873Z,15.90
2023-05-06T15:23:09.676Z,15.70
2023-05-06T15:26:12.527Z,16.60
2023-05-06T15:29:15.970Z,20.10
2023-05-06T15:32:18.775Z,20.40
2023-05-06T15:35:21.713Z,18.40
2023-05-06T15:38:24.559Z,18.70
2023-05-06T15:41:29.281Z,17.70
2023-05-06T15:44:33.557Z,17.70
2023-05-06T15:47:36.433Z,17.30
2023-05-06T15:50:39.530Z,16.20
2023-05-06T15:53:43.152Z,16.30
2023-05-06T15:56:47.182Z,16.40
2023-05-06T15:59:50.480Z,13.90
2023-05-06T16:02:53.484Z,13.20
2023-05-06T16:05:58.711Z,14.10
2023-05-06T16:09:02.111Z,11.00
2023-05-06T16:12:05.588Z,12.80
2023-05-06T16:15:09.102Z,12.20
2023-05-06T16:18:12.077Z,13.90
2023-05-06T16:21:14.900Z,13.80
2023-05-06T16:24:17.691Z,13.40
2023-05-06T16:27:21.231Z,13.60
2023-05-06T16:30:24.203Z,13.90
2023-05-06T16:33:27.066Z,12.80
2023-05-06T16:36:30.052Z,13.20
2023-05-06T16:39:32.966Z,13.10
2023-05-06T16:42:35.801Z,13.10
2023-05-06T16:45:39.846Z,13.90
2023-05-06T16:48:42.776Z,13.10
2023-05-06T16:51:45.604Z,13.50
2023-05-06T16:54:48.505Z,10.30
2023-05-06T16:57:51.362Z,12.40
2023-05-06T17:00:54.524Z,12.10
2023-05-06T17:03:57.391Z,11.30
2023-05-06T17:07:00.642Z,13.00
2023-05-06T17:10:03.716Z,12.60
2023-05-06T17:13:06.651Z,12.00
2023-05-06T17:16:09.665Z,14.00
2023-05-06T17:19:12.607Z,12.50
2023-05-06T17:22:16.210Z,11.90
2023-05-06T17:25:19.138Z,13.70
2023-05-06T17:28:22.035Z,12.00
2023-05-06T17:31:24.946Z,13.80
2023-05-06T17:34:27.876Z,14.20
2023-05-06T17:37:31.570Z,13.60
2023-05-06T17:40:34.463Z,13.10
2023-05-06T17:43:37.293Z,15.30
2023-05-06T17:46:40.209Z,14.20
2023-05-06T17:49:43.044Z,14.20
2023-05-06T17:52:46.460Z,15.00
2023-05-06T17:55:49.346Z,17.20
2023-05-06T17:58:52.156Z,17.80
2023-05-06T18:01:55.392Z,19.40
2023-05-06T18:04:58.270Z,19.20
2023-05-06T18:08:01.222Z,17.70
2023-05-06T18:11:04.123Z,14.20
2023-05-06T18:14:07.107Z,15.30
2023-05-06T18:17:09.898Z,13.20
2023-05-06T18:20:13.065Z,15.00
2023-05-06T18:23:15.984Z,13.80
2023-05-06T18:26:31.693Z,9.90
2023-05-06T18:29:42.147Z,8.00
2023-05-06T18:32:45.011Z,14.20
2023-05-06T18:35:47.895Z,13.70
2023-05-06T18:38:51.289Z,11.80
2023-05-06T18:41:54.239Z,11.00
2023-05-06T18:44:58.092Z,8.20
2023-05-06T18:48:00.984Z,9.20
2023-05-06T18:51:11.833Z,7.50
2023-05-06T18:54:16.162Z,8.70
2023-05-06T18:57:19.737Z,9.60
2023-05-06T19:00:22.742Z,9.90
2023-05-06T19:03:25.545Z,10.70
2023-05-06T19:06:28.369Z,9.00
2023-05-06T19:09:32.987Z,9.20
2023-05-06T19:12:36.061Z,6.60
2023-05-06T19:15:38.933Z,10.00
2023-05-06T19:18:41.913Z,9.90
2023-05-06T19:21:44.740Z,10.20
2023-05-06T19:24:47.596Z,11.40
2023-05-06T19:27:50.428Z,13.30
2023-05-06T19:30:53.434Z,14.00
2023-05-06T19:33:56.768Z,13.70
2023-05-06T19:36:59.582Z,11.60
2023-05-06T19:40:04.222Z,10.40
2023-05-06T19:43:07.150Z,12.40
2023-05-06T19:46:11.181Z,11.40
2023-05-06T19:49:14.069Z,7.80
2023-05-06T19:52:18.979Z,11.70
2023-05-06T19:55:22.309Z,12.00
2023-05-06T19:58:25.991Z,10.50
2023-05-06T20:01:28.874Z,9.80
2023-05-06T20:04:31.846Z,10.40
2023-05-06T20:07:34.761Z,9.60
2023-05-06T20:10:38.303Z,11.40
2023-05-06T20:13:41.210Z,12.70
2023-05-06T20:16:44.010Z,16.10
2023-05-06T20:19:46.960Z,7.60
2023-05-06T20:22:49.766Z,10.00
2023-05-06T20:25:53.242Z,10.70
2023-05-06T20:28:56.080Z,7.90
2023-05-06T20:31:59.818Z,11.30
2023-05-06T20:35:04.415Z,11.10
2023-05-06T20:38:09.413Z,12.30
2023-05-06T20:41:12.202Z,11.20
2023-05-06T20:44:15.437Z,6.90
2023-05-06T20:47:19.031Z,11.40
2023-05-06T20:50:22.408Z,10.70
2023-05-06T20:53:27.365Z,11.90
2023-05-06T20:56:30.369Z,10.50
2023-05-06T20:59:33.144Z,9.40
2023-05-06T21:02:40.395Z,8.40
2023-05-06T21:05:44.817Z,9.90
2023-05-06T21:08:47.684Z,8.20
2023-05-06T21:11:51.105Z,11.70
2023-05-06T21:14:53.988Z,9.60
2023-05-06T21:17:56.846Z,6.30
2023-05-06T21:20:59.940Z,10.10
2023-05-06T21:24:02.875Z,6.50
2023-05-06T21:27:08.165Z,9.10
2023-05-06T21:30:11.332Z,7.40
2023-05-06T21:33:14.134Z,10.10
2023-05-06T21:36:16.982Z,10.20
2023-05-06T21:39:20.173Z,9.90
2023-05-06T21:42:23.129Z,12.60
2023-05-06T21:45:26.807Z,10.90
2023-05-06T21:48:29.636Z,12.70
2023-05-06T21:51:35.152Z,10.70
2023-05-06T21:54:38.498Z,11.40
2023-05-06T21:57:41.325Z,10.40
2023-05-06T22:00:44.181Z,10.90
2023-05-06T22:03:47.865Z,10.00
2023-05-06T22:06:50.886Z,11.50
2023-05-06T22:09:53.669Z,10.20
2023-05-06T22:12:56.494Z,13.20
2023-05-06T22:15:59.443Z,10.90
2023-05-06T22:19:02.327Z,12.80
2023-05-06T22:22:05.138Z,11.20
2023-05-06T22:25:08.597Z,9.80
2023-05-06T22:28:11.875Z,12.80
2023-05-06T22:31:14.895Z,10.30
2023-05-06T22:34:17.746Z,10.90
2023-05-06T22:37:20.636Z,13.40
2023-05-06T22:40:23.522Z,14.80
2023-05-06T22:43:26.319Z,15.80
2023-05-06T22:46:34.943Z,14.50
2023-05-06T22:49:38.508Z,12.90
2023-05-06T22:52:41.623Z,14.90
2023-05-06T22:55:45.636Z,14.10
2023-05-06T22:58:48.883Z,13.00
2023-05-06T23:01:52.124Z,12.60
2023-05-06T23:04:58.295Z,8.20
2023-05-06T23:08:01.225Z,14.40
2023-05-06T23:14:43.593Z,11.40
2023-05-06T23:17:46.741Z,11.00
2023-05-06T23:20:49.878Z,8.90
2023-05-06T23:23:52.968Z,11.70
2023-05-06T23:26:55.848Z,12.70
2023-05-06T23:30:01.063Z,8.60
2023-05-06T23:33:04.068Z,9.80
2023-05-06T23:36:07.210Z,9.80
2023-05-06T23:39:12.432Z,8.50
2023-05-06T23:42:15.315Z,9.70
2023-05-06T23:45:19.833Z,10.10
2023-05-06T23:48:22.632Z,10.10
2023-05-06T23:51:25.764Z,8.60
2023-05-06T23:54:28.571Z,10.70
2023-05-06T23:57:32.036Z,7.70
